PWSweather.com
Personal Weather Stations
Station Observations
IQUEBECQ10
SteFoy, Quebec, QC

SteFoyQuebec, QC

Lat: 46.7828, Lon: -71.3588

Elevation: 100

Station Type: Davis Vantage Vue

Latest ConditionsUpdated 4:47:13 AM EST Sunday, Dec 15, 2019
Currently Today's Max Today's Min Today's Average
Temperature 34.8°F1.6°C 37.4°F3.0°C 34.8°F1.6°C 36.5°F2.5°C
Dew Point 33.5°F0.8°C 36.4°F2.4°C 33.5°F0.8°C 35.4°F1.9°C
Winds 6.0 mph SSW9.7 kmh SSW 14.0 mph -22.5 kmh - - 3.3 mph 5.3 kmh
Wind Gusts 16.0 mph25.7 kmh 22.0 mph35.4 kmh - -
Humidity 95% 96% 94% 96%
Pressure 28.90 in978.7 mb 28.91 in979.0 mb 28.88 in978.0 mb -
Precipitation - 0.11 in2.8 mm - -
Hour Temp Dew Point Humidity Winds Wind Gusts Pressure Precip Precip Rate Daily Precip Total
04:47 AM 34.8°F1.6°C 33.5°F0.8°C 95% 6.0 mph SSW9.7 kmh SSW 16.0 mph25.7 kmh 28.90 in978.7 mb 0.00 in0.0 mm 0.00 in0.0 mm 0.11 in2.8 mm
04:44 AM 34.9°F1.6°C 33.6°F0.9°C 95% 2.0 mph S3.2 kmh S 16.0 mph25.7 kmh 28.90 in978.7 mb 0.00 in0.0 mm 0.00 in0.0 mm 0.11 in2.8 mm
04:41 AM 34.9°F1.6°C 33.6°F0.9°C 95% 14.0 mph SSW22.5 kmh SSW 15.0 mph24.1 kmh 28.90 in978.7 mb 0.00 in0.0 mm 0.00 in0.0 mm 0.11 in2.8 mm
04:38 AM 35.0°F1.7°C 33.7°F0.9°C 95% 1.0 mph S1.6 kmh S 15.0 mph24.1 kmh 28.90 in978.7 mb 0.00 in0.0 mm 0.00 in0.0 mm 0.11 in2.8 mm
04:35 AM 35.0°F1.7°C 33.7°F0.9°C 95% 4.0 mph SSW6.4 kmh SSW 15.0 mph24.1 kmh 28.90 in978.7 mb 0.00 in0.0 mm 0.00 in0.0 mm 0.11 in2.8 mm
04:32 AM 35.1°F1.7°C 33.8°F1.0°C 95% 1.0 mph SSW1.6 kmh SSW 15.0 mph24.1 kmh 28.90 in978.7 mb 0.00 in0.0 mm 0.00 in0.0 mm 0.11 in2.8 mm
04:29 AM 35.1°F1.7°C 33.8°F1.0°C 95% 11.0 mph SSW17.7 kmh SSW 12.0 mph19.3 kmh 28.90 in978.7 mb 0.00 in0.0 mm 0.00 in0.0 mm 0.11 in2.8 mm
04:26 AM 35.1°F1.7°C 33.8°F1.0°C 95% 7.0 mph SW11.3 kmh SW 16.0 mph25.7 kmh 28.90 in978.7 mb 0.00 in0.0 mm 0.00 in0.0 mm 0.11 in2.8 mm
04:23 AM 35.2°F1.8°C 33.9°F1.1°C 95% Calm Calm 16.0 mph25.7 kmh 28.91 in979.0 mb 0.00 in0.0 mm 0.00 in0.0 mm 0.11 in2.8 mm
04:20 AM 35.3°F1.8°C 34.0°F1.1°C 95% 7.0 mph S11.3 kmh S 16.0 mph25.7 kmh 28.90 in978.7 mb 0.00 in0.0 mm 0.00 in0.0 mm 0.11 in2.8 mm
04:17 AM 35.3°F1.8°C 34.0°F1.1°C 95% 4.0 mph S6.4 kmh S 16.0 mph25.7 kmh 28.91 in979.0 mb 0.00 in0.0 mm 0.00 in0.0 mm 0.11 in2.8 mm
04:14 AM 35.4°F1.9°C 33.8°F1.0°C 94% 6.0 mph SSW9.7 kmh SSW 16.0 mph25.7 kmh 28.91 in979.0 mb 0.00 in0.0 mm 0.00 in0.0 mm 0.11 in2.8 mm
04:11 AM 35.6°F2.0°C 34.0°F1.1°C 94% 4.0 mph SW6.4 kmh SW 16.0 mph25.7 kmh 28.91 in979.0 mb 0.00 in0.0 mm 0.00 in0.0 mm 0.11 in2.8 mm
04:08 AM 35.6°F2.0°C 34.3°F1.3°C 95% 9.0 mph SW14.5 kmh SW 16.0 mph25.7 kmh 28.91 in979.0 mb 0.00 in0.0 mm 0.00 in0.0 mm 0.11 in2.8 mm
04:05 AM 35.7°F2.1°C 34.4°F1.3°C 95% 2.0 mph SW3.2 kmh SW 14.0 mph22.5 kmh 28.91 in979.0 mb 0.00 in0.0 mm 0.00 in0.0 mm 0.11 in2.8 mm
04:02 AM 35.8°F2.1°C 34.5°F1.4°C 95% 6.0 mph SSW9.7 kmh SSW 12.0 mph19.3 kmh 28.91 in979.0 mb 0.00 in0.0 mm 0.00 in0.0 mm 0.11 in2.8 mm
03:59 AM 35.9°F2.2°C 34.6°F1.4°C 95% 9.0 mph SW14.5 kmh SW 11.0 mph17.7 kmh 28.91 in979.0 mb 0.00 in0.0 mm 0.00 in0.0 mm 0.11 in2.8 mm
03:56 AM 35.9°F2.2°C 34.6°F1.4°C 95% 3.0 mph SW4.8 kmh SW 11.0 mph17.7 kmh 28.91 in979.0 mb 0.00 in0.0 mm 0.00 in0.0 mm 0.11 in2.8 mm
03:53 AM 36.0°F2.2°C 34.7°F1.5°C 95% 5.0 mph SSW8.0 kmh SSW 22.0 mph35.4 kmh 28.91 in979.0 mb 0.00 in0.0 mm 0.00 in0.0 mm 0.11 in2.8 mm
03:50 AM 36.1°F2.3°C 34.8°F1.6°C 95% 2.0 mph WSW3.2 kmh WSW 22.0 mph35.4 kmh 28.91 in979.0 mb 0.00 in0.0 mm 0.00 in0.0 mm 0.11 in2.8 mm
03:47 AM 36.1°F2.3°C 34.8°F1.6°C 95% 2.0 mph S3.2 kmh S 22.0 mph35.4 kmh 28.91 in979.0 mb 0.00 in0.0 mm 0.00 in0.0 mm 0.11 in2.8 mm
03:44 AM 36.2°F2.3°C 34.9°F1.6°C 95% 5.0 mph WSW8.0 kmh WSW 22.0 mph35.4 kmh 28.91 in979.0 mb 0.00 in0.0 mm 0.00 in0.0 mm 0.11 in2.8 mm
03:41 AM 36.3°F2.4°C 35.0°F1.7°C 95% 6.0 mph S9.7 kmh S 22.0 mph35.4 kmh 28.91 in979.0 mb 0.00 in0.0 mm 0.00 in0.0 mm 0.11 in2.8 mm
03:38 AM 36.4°F2.4°C 35.1°F1.7°C 95% 5.0 mph SW8.0 kmh SW 22.0 mph35.4 kmh 28.91 in979.0 mb 0.00 in0.0 mm 0.00 in0.0 mm 0.11 in2.8 mm
03:35 AM 36.5°F2.5°C 35.2°F1.8°C 95% 13.0 mph SW20.9 kmh SW 17.0 mph27.4 kmh 28.91 in979.0 mb 0.00 in0.0 mm 0.00 in0.0 mm 0.11 in2.8 mm
03:32 AM 36.6°F2.6°C 35.3°F1.8°C 95% 4.0 mph WSW6.4 kmh WSW 17.0 mph27.4 kmh 28.91 in979.0 mb 0.00 in0.0 mm 0.00 in0.0 mm 0.11 in2.8 mm
03:29 AM 36.7°F2.6°C 35.4°F1.9°C 95% 4.0 mph SSW6.4 kmh SSW 17.0 mph27.4 kmh 28.91 in979.0 mb 0.00 in0.0 mm 0.00 in0.0 mm 0.11 in2.8 mm
03:26 AM 36.9°F2.7°C 35.9°F2.2°C 96% 2.0 mph SSW3.2 kmh SSW 17.0 mph27.4 kmh 28.91 in979.0 mb 0.00 in0.0 mm 0.00 in0.0 mm 0.11 in2.8 mm
03:23 AM 37.0°F2.8°C 36.0°F2.2°C 96% 3.0 mph SSW4.8 kmh SSW 13.0 mph20.9 kmh 28.91 in979.0 mb 0.00 in0.0 mm 0.00 in0.0 mm 0.11 in2.8 mm
03:20 AM 37.0°F2.8°C 36.0°F2.2°C 96% 5.0 mph SSW8.0 kmh SSW 11.0 mph17.7 kmh 28.91 in979.0 mb 0.00 in0.0 mm 0.00 in0.0 mm 0.11 in2.8 mm
03:17 AM 37.1°F2.8°C 36.1°F2.3°C 96% 4.0 mph SSW6.4 kmh SSW 11.0 mph17.7 kmh 28.91 in979.0 mb 0.00 in0.0 mm 0.00 in0.0 mm 0.11 in2.8 mm
03:14 AM 37.1°F2.8°C 36.1°F2.3°C 96% 2.0 mph SW3.2 kmh SW 11.0 mph17.7 kmh 28.90 in978.7 mb 0.00 in0.0 mm 0.00 in0.0 mm 0.11 in2.8 mm
03:11 AM 37.2°F2.9°C 36.2°F2.3°C 96% 3.0 mph SW4.8 kmh SW 11.0 mph17.7 kmh 28.91 in979.0 mb 0.03 in0.8 mm 0.00 in0.0 mm 0.11 in2.8 mm
03:08 AM 37.2°F2.9°C 36.2°F2.3°C 96% 5.0 mph SW8.0 kmh SW 11.0 mph17.7 kmh 28.90 in978.7 mb 0.03 in0.8 mm 0.00 in0.0 mm 0.11 in2.8 mm
03:05 AM 37.2°F2.9°C 36.2°F2.3°C 96% 5.0 mph SW8.0 kmh SW 11.0 mph17.7 kmh 28.90 in978.7 mb 0.03 in0.8 mm 0.00 in0.0 mm 0.11 in2.8 mm
03:02 AM 37.2°F2.9°C 36.2°F2.3°C 96% 2.0 mph S3.2 kmh S 11.0 mph17.7 kmh 28.90 in978.7 mb 0.03 in0.8 mm 0.00 in0.0 mm 0.11 in2.8 mm
02:59 AM 37.1°F2.8°C 36.1°F2.3°C 96% 3.0 mph S4.8 kmh S 11.0 mph17.7 kmh 28.90 in978.7 mb 0.03 in0.8 mm 0.00 in0.0 mm 0.11 in2.8 mm
02:56 AM 37.1°F2.8°C 36.1°F2.3°C 96% 5.0 mph SW8.0 kmh SW 8.0 mph12.9 kmh 28.90 in978.7 mb 0.03 in0.8 mm 0.60 in15.2 mm 0.10 in2.5 mm
02:53 AM 37.1°F2.8°C 36.1°F2.3°C 96% Calm Calm 8.0 mph12.9 kmh 28.90 in978.7 mb 0.00 in0.0 mm 0.00 in0.0 mm 0.10 in2.5 mm
02:50 AM 37.0°F2.8°C 36.0°F2.2°C 96% Calm Calm 5.0 mph8.0 kmh 28.91 in979.0 mb 0.00 in0.0 mm 0.00 in0.0 mm 0.10 in2.5 mm
02:47 AM 36.9°F2.7°C 35.9°F2.2°C 96% 3.0 mph SW4.8 kmh SW 5.0 mph8.0 kmh 28.91 in979.0 mb 0.00 in0.0 mm 0.00 in0.0 mm 0.10 in2.5 mm
02:44 AM 36.8°F2.7°C 35.8°F2.1°C 96% Calm Calm 4.0 mph6.4 kmh 28.91 in979.0 mb 0.00 in0.0 mm 0.00 in0.0 mm 0.10 in2.5 mm
02:41 AM 36.6°F2.6°C 35.6°F2.0°C 96% 3.0 mph S4.8 kmh S 4.0 mph6.4 kmh 28.91 in979.0 mb 0.00 in0.0 mm 0.00 in0.0 mm 0.09 in2.3 mm
02:38 AM 36.5°F2.5°C 35.5°F1.9°C 96% Calm Calm 4.0 mph6.4 kmh 28.91 in979.0 mb 0.00 in0.0 mm 0.00 in0.0 mm 0.09 in2.3 mm
02:35 AM 36.4°F2.4°C 35.4°F1.9°C 96% Calm Calm 4.0 mph6.4 kmh 28.91 in979.0 mb 0.00 in0.0 mm 0.00 in0.0 mm 0.09 in2.3 mm
02:32 AM 36.4°F2.4°C 35.4°F1.9°C 96% 1.0 mph SSW1.6 kmh SSW 2.0 mph3.2 kmh 28.91 in979.0 mb 0.00 in0.0 mm 0.00 in0.0 mm 0.09 in2.3 mm
02:29 AM 36.3°F2.4°C 35.3°F1.8°C 96% Calm Calm 4.0 mph6.4 kmh 28.91 in979.0 mb 0.00 in0.0 mm 0.00 in0.0 mm 0.09 in2.3 mm
02:26 AM 36.3°F2.4°C 35.3°F1.8°C 96% 1.0 mph S1.6 kmh S 2.0 mph3.2 kmh 28.91 in979.0 mb 0.00 in0.0 mm 0.00 in0.0 mm 0.09 in2.3 mm
02:23 AM 36.2°F2.3°C 35.2°F1.8°C 96% 1.0 mph SSE1.6 kmh SSE 2.0 mph3.2 kmh 28.91 in979.0 mb 0.00 in0.0 mm 0.00 in0.0 mm 0.09 in2.3 mm
02:20 AM 36.1°F2.3°C 35.1°F1.7°C 96% Calm Calm 2.0 mph3.2 kmh 28.91 in979.0 mb 0.00 in0.0 mm 0.00 in0.0 mm 0.09 in2.3 mm
02:17 AM 36.1°F2.3°C 35.1°F1.7°C 96% 1.0 mph SW1.6 kmh SW 2.0 mph3.2 kmh 28.91 in979.0 mb 0.00 in0.0 mm 0.00 in0.0 mm 0.09 in2.3 mm
02:14 AM 36.1°F2.3°C 35.1°F1.7°C 96% Calm Calm 3.0 mph4.8 kmh 28.91 in979.0 mb 0.00 in0.0 mm 0.00 in0.0 mm 0.09 in2.3 mm
02:11 AM 36.0°F2.2°C 35.0°F1.7°C 96% Calm Calm -- 28.91 in979.0 mb 0.00 in0.0 mm 0.00 in0.0 mm 0.09 in2.3 mm
02:08 AM 36.0°F2.2°C 35.0°F1.7°C 96% Calm Calm -- 28.91 in979.0 mb 0.00 in0.0 mm 0.00 in0.0 mm 0.09 in2.3 mm
02:05 AM 36.0°F2.2°C 35.0°F1.7°C 96% Calm Calm -- 28.91 in979.0 mb 0.00 in0.0 mm 0.00 in0.0 mm 0.09 in2.3 mm
02:02 AM 36.1°F2.3°C 35.1°F1.7°C 96% Calm Calm 7.0 mph11.3 kmh 28.91 in979.0 mb 0.00 in0.0 mm 0.00 in0.0 mm 0.09 in2.3 mm
01:59 AM 36.1°F2.3°C 35.1°F1.7°C 96% 2.0 mph ENE3.2 kmh ENE 7.0 mph11.3 kmh 28.90 in978.7 mb 0.00 in0.0 mm 0.00 in0.0 mm 0.09 in2.3 mm
01:56 AM 36.1°F2.3°C 35.1°F1.7°C 96% 1.0 mph ENE1.6 kmh ENE 7.0 mph11.3 kmh 28.90 in978.7 mb 0.00 in0.0 mm 0.00 in0.0 mm 0.09 in2.3 mm
01:53 AM 36.2°F2.3°C 35.2°F1.8°C 96% Calm Calm 7.0 mph11.3 kmh 28.91 in979.0 mb 0.00 in0.0 mm 0.00 in0.0 mm 0.09 in2.3 mm
01:50 AM 36.3°F2.4°C 35.3°F1.8°C 96% 1.0 mph ESE1.6 kmh ESE 7.0 mph11.3 kmh 28.91 in979.0 mb 0.00 in0.0 mm 0.00 in0.0 mm 0.09 in2.3 mm
01:47 AM 36.3°F2.4°C 35.3°F1.8°C 96% 1.0 mph ENE1.6 kmh ENE 7.0 mph11.3 kmh 28.91 in979.0 mb 0.00 in0.0 mm 0.00 in0.0 mm 0.09 in2.3 mm
01:44 AM 36.5°F2.5°C 35.5°F1.9°C 96% 1.0 mph E1.6 kmh E 6.0 mph9.7 kmh 28.91 in979.0 mb 0.00 in0.0 mm 0.00 in0.0 mm 0.09 in2.3 mm
01:41 AM 36.6°F2.6°C 35.6°F2.0°C 96% Calm Calm 6.0 mph9.7 kmh 28.91 in979.0 mb 0.03 in0.8 mm 0.00 in0.0 mm 0.09 in2.3 mm
01:38 AM 36.7°F2.6°C 35.7°F2.1°C 96% 2.0 mph E3.2 kmh E 6.0 mph9.7 kmh 28.91 in979.0 mb 0.04 in1.0 mm 0.00 in0.0 mm 0.09 in2.3 mm
01:35 AM 36.7°F2.6°C 35.7°F2.1°C 96% Calm Calm 3.0 mph4.8 kmh 28.91 in979.0 mb 0.04 in1.0 mm 0.00 in0.0 mm 0.09 in2.3 mm
01:32 AM 36.8°F2.7°C 35.8°F2.1°C 96% 1.0 mph E1.6 kmh E 3.0 mph4.8 kmh 28.91 in979.0 mb 0.04 in1.0 mm 0.00 in0.0 mm 0.09 in2.3 mm
01:29 AM 36.9°F2.7°C 35.9°F2.2°C 96% Calm Calm 3.0 mph4.8 kmh 28.91 in979.0 mb 0.04 in1.0 mm 0.00 in0.0 mm 0.09 in2.3 mm
01:26 AM 36.9°F2.7°C 35.9°F2.2°C 96% Calm Calm -- 28.91 in979.0 mb 0.04 in1.0 mm 0.00 in0.0 mm 0.08 in2.0 mm
01:23 AM 36.9°F2.7°C 35.9°F2.2°C 96% Calm Calm 5.0 mph8.0 kmh 28.91 in979.0 mb 0.05 in1.3 mm 0.00 in0.0 mm 0.08 in2.0 mm
01:20 AM 36.9°F2.7°C 35.9°F2.2°C 96% 3.0 mph ENE4.8 kmh ENE 5.0 mph8.0 kmh 28.91 in979.0 mb 0.06 in1.5 mm 0.00 in0.0 mm 0.08 in2.0 mm
01:17 AM 36.9°F2.7°C 35.9°F2.2°C 96% 1.0 mph E1.6 kmh E 5.0 mph8.0 kmh 28.90 in978.7 mb 0.06 in1.5 mm 0.00 in0.0 mm 0.08 in2.0 mm
01:14 AM 36.9°F2.7°C 35.9°F2.2°C 96% 1.0 mph ENE1.6 kmh ENE 5.0 mph8.0 kmh 28.90 in978.7 mb 0.06 in1.5 mm 0.00 in0.0 mm 0.07 in1.8 mm
01:11 AM 36.9°F2.7°C 35.9°F2.2°C 96% 5.0 mph ENE8.0 kmh ENE 5.0 mph8.0 kmh 28.90 in978.7 mb 0.09 in2.3 mm 0.00 in0.0 mm 0.07 in1.8 mm
01:08 AM 37.0°F2.8°C 36.0°F2.2°C 96% 1.0 mph NE1.6 kmh NE 4.0 mph6.4 kmh 28.90 in978.7 mb 0.10 in2.5 mm 0.00 in0.0 mm 0.07 in1.8 mm
01:05 AM 37.0°F2.8°C 36.0°F2.2°C 96% Calm Calm -- 28.91 in979.0 mb 0.11 in2.8 mm 0.00 in0.0 mm 0.06 in1.5 mm
01:02 AM 37.0°F2.8°C 36.0°F2.2°C 96% Calm Calm 2.0 mph3.2 kmh 28.91 in979.0 mb 0.11 in2.8 mm 0.00 in0.0 mm 0.06 in1.5 mm
12:59 AM 37.1°F2.8°C 36.1°F2.3°C 96% Calm Calm 1.0 mph1.6 kmh 28.90 in978.7 mb 0.14 in3.6 mm 0.80 in20.3 mm 0.06 in1.5 mm
12:56 AM 37.1°F2.8°C 36.1°F2.3°C 96% Calm Calm -- 28.90 in978.7 mb 0.10 in2.5 mm 0.00 in0.0 mm 0.14 in3.6 mm
12:53 AM 37.2°F2.9°C 36.2°F2.3°C 96% Calm Calm 20.0 mph32.2 kmh 28.90 in978.7 mb 0.12 in3.0 mm 0.00 in0.0 mm 0.14 in3.6 mm
12:50 AM 37.2°F2.9°C 36.2°F2.3°C 96% Calm Calm 20.0 mph32.2 kmh 28.89 in978.3 mb 0.14 in3.6 mm 1.40 in35.6 mm 0.14 in3.6 mm
12:47 AM 37.3°F2.9°C 36.3°F2.4°C 96% 12.0 mph ENE19.3 kmh ENE 20.0 mph32.2 kmh 28.88 in978.0 mb 0.07 in1.8 mm 0.80 in20.3 mm 0.07 in1.8 mm
12:44 AM 37.3°F2.9°C 36.3°F2.4°C 96% 9.0 mph ENE14.5 kmh ENE 16.0 mph25.7 kmh 28.88 in978.0 mb 0.03 in0.8 mm 0.00 in0.0 mm 0.03 in0.8 mm
12:41 AM 37.3°F2.9°C 36.3°F2.4°C 96% 5.0 mph NE8.0 kmh NE 16.0 mph25.7 kmh 28.90 in978.7 mb 0.03 in0.8 mm 0.60 in15.2 mm 0.03 in0.8 mm
12:38 AM 37.4°F3.0°C 36.4°F2.4°C 96% 3.0 mph ENE4.8 kmh ENE 16.0 mph25.7 kmh 28.90 in978.7 mb 0.00 in0.0 mm 0.00 in0.0 mm 0.00 in0.0 mm
12:35 AM 37.4°F3.0°C 36.4°F2.4°C 96% 4.0 mph ENE6.4 kmh ENE 22.0 mph35.4 kmh 28.90 in978.7 mb 0.00 in0.0 mm 0.00 in0.0 mm 0.00 in0.0 mm
12:32 AM 37.4°F3.0°C 36.4°F2.4°C 96% Calm Calm 22.0 mph35.4 kmh 28.90 in978.7 mb 0.00 in0.0 mm 0.00 in0.0 mm 0.00 in0.0 mm
12:29 AM 37.3°F2.9°C 36.3°F2.4°C 96% 10.0 mph NE16.1 kmh NE 22.0 mph35.4 kmh 28.89 in978.3 mb 0.00 in0.0 mm 0.00 in0.0 mm 0.00 in0.0 mm
12:26 AM 37.3°F2.9°C 36.3°F2.4°C 96% 11.0 mph NE17.7 kmh NE 22.0 mph35.4 kmh 28.89 in978.3 mb 0.00 in0.0 mm 0.00 in0.0 mm 0.00 in0.0 mm
12:23 AM 37.3°F2.9°C 36.3°F2.4°C 96% 6.0 mph ENE9.7 kmh ENE 22.0 mph35.4 kmh 28.89 in978.3 mb 0.00 in0.0 mm 0.00 in0.0 mm 0.00 in0.0 mm
12:20 AM 37.3°F2.9°C 36.3°F2.4°C 96% 13.0 mph NE20.9 kmh NE 22.0 mph35.4 kmh 28.90 in978.7 mb 0.00 in0.0 mm 0.00 in0.0 mm 0.00 in0.0 mm
12:17 AM 37.3°F2.9°C 36.3°F2.4°C 96% 8.0 mph ENE12.9 kmh ENE 22.0 mph35.4 kmh 28.89 in978.3 mb 0.00 in0.0 mm 0.00 in0.0 mm 0.00 in0.0 mm
12:14 AM 37.2°F2.9°C 36.2°F2.3°C 96% 13.0 mph NE20.9 kmh NE 16.0 mph25.7 kmh 28.89 in978.3 mb 0.00 in0.0 mm 0.00 in0.0 mm 0.00 in0.0 mm
12:11 AM 37.2°F2.9°C 36.2°F2.3°C 96% 2.0 mph NE3.2 kmh NE 16.0 mph25.7 kmh 28.90 in978.7 mb 0.00 in0.0 mm 0.00 in0.0 mm 0.00 in0.0 mm
12:08 AM 37.1°F2.8°C 36.1°F2.3°C 96% 10.0 mph NE16.1 kmh NE 14.0 mph22.5 kmh 28.91 in979.0 mb 0.00 in0.0 mm 0.00 in0.0 mm 0.00 in0.0 mm
12:05 AM 37.1°F2.8°C 36.1°F2.3°C 96% 1.0 mph ENE1.6 kmh ENE 13.0 mph20.9 kmh 28.90 in978.7 mb 0.00 in0.0 mm 0.00 in0.0 mm 0.00 in0.0 mm
12:02 AM 37.0°F2.8°C 36.0°F2.2°C 96% 3.0 mph E4.8 kmh E 13.0 mph20.9 kmh 28.91 in979.0 mb 0.00 in0.0 mm 0.00 in0.0 mm 0.00 in0.0 mm